Time;durP1;ratioP1;P1;durP2;ratioP2;P2;SDS_P1;SDS_P2;PMS_P1;PMS_P2;Temp;Humidity;BMP_temperature;BMP_pressure;BME280_temperature;BME280_humidity;BME280_pressure;Samples;Min_cycle;Max_cycle;Signal;HPM_P1;HPM_P2
2021/10/22 00:02:16;;;;;;;9.40;5.78;;;;;;;13.38;61.42;97094.38;5012720;28;20056;-60
2021/10/22 00:04:42;;;;;;;11.30;6.18;;;;;;;13.40;61.23;97122.91;5011619;28;20037;-57
2021/10/22 00:07:07;;;;;;;9.45;5.68;;;;;;;13.37;61.40;97131.84;5045197;28;20076;-57
2021/10/22 00:09:33;;;;;;;8.65;6.28;;;;;;;13.36;61.45;97058.91;5028912;28;20067;-59
2021/10/22 00:11:59;;;;;;;14.13;6.60;;;;;;;13.36;61.43;97098.06;5028718;28;20041;-58
2021/10/22 00:14:25;;;;;;;11.35;6.18;;;;;;;13.36;61.31;97067.56;5043362;28;20126;-59
2021/10/22 00:16:51;;;;;;;10.32;6.10;;;;;;;13.37;61.41;97084.06;5027283;28;20134;-59
2021/10/22 00:19:17;;;;;;;11.98;6.53;;;;;;;13.35;61.57;97104.22;5029663;28;20060;-58
2021/10/22 00:21:43;;;;;;;14.35;6.30;;;;;;;13.32;61.62;97105.34;5012065;28;20037;-59
2021/10/22 00:24:09;;;;;;;11.05;6.15;;;;;;;13.32;61.49;97120.16;5026329;28;20033;-59
2021/10/22 00:26:35;;;;;;;8.52;5.30;;;;;;;13.22;61.74;97096.66;5028340;28;20084;-55
2021/10/22 00:29:01;;;;;;;10.23;6.97;;;;;;;13.29;61.46;97102.19;5012634;28;20514;-58
2021/10/22 00:31:26;;;;;;;17.02;5.32;;;;;;;13.28;61.61;97113.56;5008680;28;20085;-58
2021/10/22 00:33:53;;;;;;;7.72;5.22;;;;;;;13.28;61.88;97119.63;5009247;28;20187;-58
2021/10/22 00:36:19;;;;;;;12.52;5.60;;;;;;;13.23;61.73;97113.13;5010508;28;20046;-57
2021/10/22 00:38:45;;;;;;;8.27;5.32;;;;;;;13.25;61.76;97109.41;5009077;28;20041;-58
2021/10/22 00:41:11;;;;;;;9.73;5.60;;;;;;;13.25;61.83;97101.59;5009881;28;20175;-60
2021/10/22 00:43:37;;;;;;;10.82;5.82;;;;;;;13.23;61.95;97115.75;5010199;28;20042;-57
2021/10/22 00:46:03;;;;;;;9.98;6.10;;;;;;;13.21;61.87;97115.88;5009956;28;20037;-58
2021/10/22 00:48:29;;;;;;;12.23;6.55;;;;;;;13.26;61.99;97103.25;5018493;28;20158;-58
2021/10/22 00:50:57;;;;;;;8.15;4.53;;;;;;;13.26;62.09;97110.25;5029133;28;20077;-58
2021/10/22 00:53:24;;;;;;;9.95;5.72;;;;;;;13.27;61.94;97127.56;5026245;28;20100;-58
2021/10/22 00:55:51;;;;;;;12.95;6.78;;;;;;;13.24;62.10;97104.34;5019115;28;20096;-59
2021/10/22 00:58:17;;;;;;;9.85;5.32;;;;;;;13.25;62.07;97130.28;5029039;28;20037;-58
2021/10/22 01:00:43;;;;;;;10.70;6.32;;;;;;;13.22;61.90;97107.09;5026054;28;20049;-59
2021/10/22 01:03:09;;;;;;;7.20;5.13;;;;;;;13.24;61.87;97112.19;5023961;28;20041;-58
2021/10/22 01:05:36;;;;;;;13.20;7.05;;;;;;;13.25;61.97;97108.59;5009795;28;20509;-58
2021/10/22 01:08:03;;;;;;;11.15;6.18;;;;;;;13.22;62.05;97104.47;5023235;28;20052;-59
2021/10/22 01:10:29;;;;;;;14.00;6.57;;;;;;;13.12;62.14;97095.78;5028487;28;20045;-57
2021/10/22 01:12:56;;;;;;;12.27;6.78;;;;;;;13.20;62.07;97095.13;5028301;28;20070;-59
2021/10/22 01:15:23;;;;;;;8.02;5.20;;;;;;;13.23;61.76;97077.44;5027594;28;20045;-59
2021/10/22 01:17:49;;;;;;;10.20;5.60;;;;;;;13.23;62.29;97100.09;5026648;28;20049;-58
2021/10/22 01:20:19;;;;;;;12.95;5.80;;;;;;;13.22;61.94;97093.22;5022202;28;20050;-58
2021/10/22 01:22:45;;;;;;;;;;;;;;;13.21;62.06;97118.47;5039610;28;20085;-58
2021/10/22 01:25:13;;;;;;;8.70;5.68;;;;;;;13.18;61.91;97129.19;5043831;28;19917;-58
2021/10/22 01:27:42;;;;;;;12.17;5.97;;;;;;;13.19;62.06;97104.72;5027390;28;20065;-57
2021/10/22 01:30:11;;;;;;;10.55;5.53;;;;;;;13.08;62.08;97091.78;5027828;28;20049;-55
2021/10/22 01:32:37;;;;;;;11.10;6.68;;;;;;;13.15;62.30;97124.22;5028551;28;20076;-54
2021/10/22 01:35:04;;;;;;;11.73;6.60;;;;;;;13.13;62.28;97108.72;5024885;28;20041;-57
2021/10/22 01:37:30;;;;;;;9.82;5.35;;;;;;;13.14;62.31;97105.13;5024864;28;20042;-58
2021/10/22 01:39:56;;;;;;;9.38;5.60;;;;;;;13.14;62.28;97112.13;5017360;28;20152;-59
2021/10/22 01:42:23;;;;;;;9.00;6.05;;;;;;;13.16;62.33;97133.69;5032178;28;20047;-58
2021/10/22 01:44:50;;;;;;;8.73;5.30;;;;;;;13.17;62.41;97111.03;5021852;28;20033;-59
2021/10/22 01:47:17;;;;;;;10.40;5.25;;;;;;;13.06;62.22;97088.47;5013325;28;20068;-56
2021/10/22 01:49:43;;;;;;;11.35;5.22;;;;;;;13.11;62.08;97092.34;5014326;28;20042;-58
2021/10/22 01:52:10;;;;;;;10.02;6.00;;;;;;;13.21;62.24;97133.31;5013037;28;20099;-58
2021/10/22 01:54:36;;;;;;;5.55;4.13;;;;;;;13.14;62.20;97115.56;5014692;28;20398;-58
2021/10/22 01:57:03;;;;;;;8.63;5.32;;;;;;;13.19;62.18;97122.97;5013133;28;20087;-57
2021/10/22 01:59:29;;;;;;;12.88;6.20;;;;;;;13.10;62.40;97102.88;5013253;28;20144;-58
2021/10/22 02:01:55;;;;;;;8.90;5.15;;;;;;;13.14;62.39;97101.69;5019707;28;20046;-56
2021/10/22 02:04:21;;;;;;;9.15;5.65;;;;;;;13.13;62.48;97090.47;5032408;28;20038;-56
2021/10/22 02:06:48;;;;;;;12.70;6.75;;;;;;;13.12;62.68;97090.56;5030236;28;20449;-57
2021/10/22 02:09:15;;;;;;;9.20;5.85;;;;;;;13.11;62.55;97081.94;5020387;28;20048;-57
2021/10/22 02:11:41;;;;;;;11.80;6.15;;;;;;;13.12;62.63;97095.78;5029986;28;20046;-57
2021/10/22 02:14:06;;;;;;;11.93;6.30;;;;;;;13.13;62.63;97095.66;5027586;28;20049;-57
2021/10/22 02:16:34;;;;;;;7.38;5.68;;;;;;;13.05;62.78;97087.63;5022738;28;20048;-57
2021/10/22 02:19:00;;;;;;;12.55;6.25;;;;;;;13.12;62.83;97111.44;5026452;28;20136;-57
2021/10/22 02:21:26;;;;;;;9.35;5.35;;;;;;;13.11;62.73;97102.78;5015338;28;20116;-57
2021/10/22 02:23:52;;;;;;;9.65;5.80;;;;;;;13.10;62.83;97101.09;5025982;28;20045;-55
2021/10/22 02:26:18;;;;;;;11.77;6.50;;;;;;;13.10;62.86;97089.84;5031096;28;20040;-53
2021/10/22 02:28:44;;;;;;;8.70;6.05;;;;;;;13.11;62.92;97105.41;5030267;28;20045;-58
2021/10/22 02:31:10;;;;;;;9.38;5.75;;;;;;;13.12;63.05;97119.28;5011222;28;20048;-59
2021/10/22 02:33:37;;;;;;;9.23;5.93;;;;;;;13.13;63.03;97105.28;5021666;28;20065;-59
2021/10/22 02:36:04;;;;;;;10.07;6.60;;;;;;;13.14;62.90;97109.50;5015812;28;20034;-57
2021/10/22 02:38:31;;;;;;;8.45;5.72;;;;;;;13.14;63.06;97104.28;5026304;28;20042;-57
2021/10/22 02:40:56;;;;;;;7.13;5.57;;;;;;;13.14;63.39;97115.56;5027375;28;20475;-56
2021/10/22 02:43:22;;;;;;;10.25;6.40;;;;;;;13.14;63.12;97112.13;5012557;28;20141;-59
2021/10/22 02:45:48;;;;;;;9.07;5.85;;;;;;;13.12;63.23;97112.28;5026657;28;20072;-58
2021/10/22 02:48:14;;;;;;;10.23;6.43;;;;;;;13.11;63.24;97130.63;5032315;28;20041;-59
2021/10/22 02:50:40;;;;;;;13.23;6.28;;;;;;;13.11;63.31;97139.31;5031915;28;20085;-56
2021/10/22 02:53:05;;;;;;;11.63;6.00;;;;;;;13.09;63.31;97141.19;5032242;28;20037;-57
2021/10/22 02:55:31;;;;;;;10.25;6.53;;;;;;;13.10;63.38;97126.34;5018685;28;20045;-58
2021/10/22 02:57:57;;;;;;;10.93;6.97;;;;;;;13.11;63.38;97114.97;5012276;28;20160;-56
2021/10/22 03:00:24;;;;;;;12.18;6.78;;;;;;;13.11;63.52;97125.41;5012296;28;20030;-58
2021/10/22 03:02:50;;;;;;;11.20;6.85;;;;;;;13.08;63.61;97110.81;5012270;28;20053;-57
2021/10/22 03:05:16;;;;;;;6.65;5.22;;;;;;;13.07;63.63;97124.03;5021145;28;20049;-57
2021/10/22 03:07:42;;;;;;;9.23;6.80;;;;;;;13.08;63.67;97120.47;5031378;28;20123;-60
2021/10/22 03:10:09;;;;;;;8.55;5.18;;;;;;;13.06;63.63;97117.97;5031825;28;20127;-59
2021/10/22 03:12:36;;;;;;;9.32;5.85;;;;;;;13.08;63.63;97136.13;5030510;28;20049;-58
2021/10/22 03:15:07;;;;;;;8.73;5.13;;;;;;;13.07;63.67;97105.75;5026463;28;20041;-58
2021/10/22 03:17:35;;;;;;;11.02;6.18;;;;;;;13.08;63.66;97110.03;5011903;28;20130;-58
2021/10/22 03:20:01;;;;;;;8.10;5.93;;;;;;;13.11;63.56;97115.84;5011657;28;20135;-58
2021/10/22 03:22:27;;;;;;;9.82;6.22;;;;;;;13.12;63.63;97125.31;5011651;28;20088;-58
2021/10/22 03:24:52;;;;;;;9.35;6.38;;;;;;;13.15;63.30;97104.16;5014731;28;20075;-58
2021/10/22 03:27:20;;;;;;;14.68;5.60;;;;;;;13.08;63.55;97118.66;5031544;28;20044;-58
2021/10/22 03:29:47;;;;;;;11.93;6.72;;;;;;;13.14;63.56;97099.06;5031374;28;20049;-56
2021/10/22 03:32:13;;;;;;;12.65;6.93;;;;;;;13.13;63.63;97116.53;5029821;28;20505;-58
2021/10/22 03:34:40;;;;;;;12.93;6.38;;;;;;;13.11;63.63;97121.06;5029745;28;20061;-56
2021/10/22 03:37:06;;;;;;;11.93;6.95;;;;;;;13.14;63.53;97128.59;5010243;28;20449;-58
2021/10/22 03:39:32;;;;;;;11.68;5.90;;;;;;;13.07;63.47;97119.63;5026602;28;20045;-56
2021/10/22 03:41:57;;;;;;;10.80;6.78;;;;;;;13.16;63.37;97115.44;5011273;28;20034;-59
2021/10/22 03:44:23;;;;;;;11.10;7.03;;;;;;;13.18;63.58;97094.44;5026507;28;20034;-59
2021/10/22 03:46:49;;;;;;;7.32;5.38;;;;;;;13.06;63.59;97098.88;5059124;28;20045;-58
2021/10/22 03:49:15;;;;;;;9.23;6.40;;;;;;;13.17;63.46;97088.41;5029155;28;20067;-59
2021/10/22 03:51:41;;;;;;;11.43;7.10;;;;;;;13.19;63.43;97107.34;5022231;28;20089;-57
2021/10/22 03:54:07;;;;;;;11.15;6.30;;;;;;;13.18;63.54;97104.88;5011022;28;20471;-58
2021/10/22 03:56:33;;;;;;;26.88;6.25;;;;;;;13.18;63.61;97099.66;5012543;28;20049;-59
2021/10/22 03:58:59;;;;;;;10.07;6.45;;;;;;;13.16;63.63;97099.78;5022077;28;20115;-58
2021/10/22 04:01:24;;;;;;;10.23;6.53;;;;;;;13.16;63.71;97102.41;5025292;28;20038;-57
2021/10/22 04:03:50;;;;;;;9.02;5.85;;;;;;;13.14;63.49;97097.28;5009967;28;20442;-58
2021/10/22 04:06:16;;;;;;;10.65;6.45;;;;;;;13.14;63.62;97092.09;5011771;28;20033;-59
2021/10/22 04:08:43;;;;;;;11.43;7.63;;;;;;;13.13;63.64;97095.66;5010792;28;20681;-59
2021/10/22 04:11:08;;;;;;;12.77;6.35;;;;;;;13.09;63.86;97104.66;5019042;28;20046;-58
2021/10/22 04:13:34;;;;;;;9.05;5.72;;;;;;;13.12;63.75;97087.97;5028177;28;20053;-58
2021/10/22 04:16:00;;;;;;;11.32;6.30;;;;;;;13.11;63.75;97115.84;5029251;28;20048;-60
2021/10/22 04:18:27;;;;;;;13.88;6.90;;;;;;;13.14;63.65;97107.72;5027623;28;20116;-57
2021/10/22 04:20:53;;;;;;;10.90;6.20;;;;;;;13.13;63.91;97115.72;5031786;28;20041;-58
2021/10/22 04:23:20;;;;;;;12.45;7.03;;;;;;;13.09;63.83;97115.09;5020745;28;20112;-54
2021/10/22 04:25:45;;;;;;;15.48;7.60;;;;;;;13.04;64.22;97112.06;5037372;28;20128;-56
2021/10/22 04:28:12;;;;;;;12.63;6.82;;;;;;;13.03;64.17;97114.81;5010663;28;20137;-56
2021/10/22 04:30:39;;;;;;;14.70;7.72;;;;;;;13.01;64.25;97107.13;5011082;28;20053;-59
2021/10/22 04:33:05;;;;;;;9.77;6.45;;;;;;;12.98;64.53;97117.78;5021581;28;20045;-56
2021/10/22 04:35:31;;;;;;;10.18;6.10;;;;;;;12.92;64.61;97128.75;5035437;28;20065;-57
2021/10/22 04:40:31;;;;;;;11.15;6.03;;;;;;;12.99;64.66;97131.66;5033390;28;20486;-52
2021/10/22 04:43:01;;;;;;;13.95;7.55;;;;;;;12.92;64.61;97136.59;5021953;28;20042;-56
2021/10/22 04:45:27;;;;;;;10.82;5.75;;;;;;;13.00;64.55;97144.56;5023172;28;20138;-58
2021/10/22 04:47:53;;;;;;;12.05;5.97;;;;;;;13.04;64.55;97104.22;5033116;28;20528;-57
2021/10/22 04:50:19;;;;;;;12.52;7.18;;;;;;;13.09;64.30;97129.91;5020990;28;20088;-55
2021/10/22 04:52:45;;;;;;;10.73;6.65;;;;;;;13.10;64.29;97119.38;5017185;28;20068;-56
2021/10/22 04:55:11;;;;;;;15.23;7.40;;;;;;;13.13;64.17;97124.38;5036287;28;20045;-54
2021/10/22 04:57:37;;;;;;;15.43;7.38;;;;;;;13.14;64.18;97144.25;5020007;28;20092;-57
2021/10/22 05:00:04;;;;;;;11.02;6.70;;;;;;;13.13;64.09;97160.88;5024141;28;20061;-52
2021/10/22 05:02:30;;;;;;;10.63;6.03;;;;;;;13.11;63.98;97136.69;5014281;28;20540;-53
2021/10/22 05:04:57;;;;;;;11.02;7.28;;;;;;;13.17;64.29;97135.34;5020119;28;20037;-56
2021/10/22 05:07:22;;;;;;;11.95;6.38;;;;;;;13.19;64.32;97143.06;5016807;28;20046;-56
2021/10/22 05:09:48;;;;;;;11.05;7.57;;;;;;;13.24;64.33;97141.69;5011944;28;20050;-58
2021/10/22 05:12:14;;;;;;;8.90;5.18;;;;;;;13.29;64.08;97146.53;5014602;28;20306;-56
2021/10/22 05:14:40;;;;;;;15.88;7.05;;;;;;;13.29;64.15;97144.75;5014222;28;20523;-54
2021/10/22 05:17:06;;;;;;;10.88;6.55;;;;;;;13.33;64.01;97159.19;5018502;28;20037;-57
2021/10/22 05:19:32;;;;;;;14.75;7.05;;;;;;;13.34;64.17;97153.00;5026102;28;20043;-59
2021/10/22 05:21:58;;;;;;;12.00;7.55;;;;;;;13.37;63.99;97162.34;5014636;28;20033;-55
2021/10/22 05:24:24;;;;;;;9.23;5.88;;;;;;;13.35;64.02;97172.91;5014564;28;20128;-54
2021/10/22 05:26:50;;;;;;;13.05;5.97;;;;;;;13.33;64.13;97164.41;5023144;28;20041;-54
2021/10/22 05:29:16;;;;;;;10.80;6.55;;;;;;;13.35;64.09;97164.25;5034422;28;20136;-56
2021/10/22 05:31:42;;;;;;;11.63;7.10;;;;;;;13.22;64.00;97148.00;5034428;28;20069;-52
2021/10/22 05:34:08;;;;;;;8.48;6.03;;;;;;;13.40;63.97;97189.00;5035207;28;20103;-57
2021/10/22 05:36:34;;;;;;;9.95;6.05;;;;;;;13.40;64.17;97186.38;5043107;28;20038;-57
2021/10/22 05:39:00;;;;;;;11.38;5.10;;;;;;;13.40;64.04;97207.25;5033645;28;20050;-57
2021/10/22 05:41:26;;;;;;;11.27;6.70;;;;;;;13.43;64.24;97199.19;5033981;28;20047;-56
2021/10/22 05:43:51;;;;;;;6.85;5.15;;;;;;;13.45;64.25;97199.84;5034357;28;20067;-57
2021/10/22 05:46:20;;;;;;;8.80;5.55;;;;;;;13.47;63.97;97191.91;5034741;28;20037;-58
2021/10/22 05:48:46;;;;;;;10.88;6.30;;;;;;;13.41;64.46;97188.03;5033847;28;20041;-57
2021/10/22 05:51:13;;;;;;;12.23;6.30;;;;;;;13.47;64.30;97216.22;5033909;28;20103;-56
2021/10/22 05:53:39;;;;;;;12.77;6.95;;;;;;;13.42;64.46;97210.56;5035703;28;20041;-55
2021/10/22 05:56:07;;;;;;;9.35;5.90;;;;;;;13.41;64.36;97206.31;5052906;28;20048;-63
2021/10/22 05:58:35;;;;;;;12.75;6.68;;;;;;;13.48;64.49;97212.66;5003649;28;20049;-62
2021/10/22 06:01:04;;;;;;;12.82;6.40;;;;;;;13.57;64.27;97206.66;5035785;28;20033;-65
2021/10/22 06:03:30;;;;;;;12.57;7.20;;;;;;;13.58;64.18;97210.91;5035149;28;20104;-56
2021/10/22 06:05:57;;;;;;;11.75;7.15;;;;;;;13.63;64.15;97212.31;5030632;28;20145;-57
2021/10/22 06:08:23;;;;;;;13.95;7.10;;;;;;;13.76;63.79;97205.09;5031805;28;20048;-59
2021/10/22 06:10:49;;;;;;;9.45;6.65;;;;;;;13.78;63.42;97217.03;5033874;28;20132;-60
2021/10/22 06:13:15;;;;;;;11.45;6.65;;;;;;;13.85;63.41;97223.38;5033925;28;20450;-59
2021/10/22 06:15:42;;;;;;;13.55;6.32;;;;;;;13.81;63.25;97216.78;5035370;28;20480;-57
2021/10/22 06:18:08;;;;;;;15.13;6.68;;;;;;;13.87;63.42;97221.44;5028588;28;20144;-61
2021/10/22 06:25:59;;;;;;;11.32;5.90;;;;;;;14.02;62.67;97228.94;5053824;28;20504;-59
2021/10/22 06:28:25;;;;;;;13.57;6.72;;;;;;;14.04;62.61;97238.28;5040710;28;20056;-59
2021/10/22 06:30:51;;;;;;;10.60;6.80;;;;;;;14.06;62.65;97232.91;5014578;28;20103;-58
2021/10/22 06:33:17;;;;;;;10.63;6.40;;;;;;;13.97;62.37;97219.69;5016880;28;20064;-54
2021/10/22 06:35:45;;;;;;;9.82;5.97;;;;;;;14.17;62.48;97227.59;5044384;28;20461;-60
2021/10/22 06:38:11;;;;;;;11.13;6.68;;;;;;;14.19;61.90;97239.53;5030611;28;20041;-57
2021/10/22 06:40:36;;;;;;;10.80;6.88;;;;;;;14.16;62.23;97237.19;5038211;28;20047;-58
2021/10/22 06:43:02;;;;;;;10.20;6.43;;;;;;;14.12;62.14;97240.22;5032011;28;20071;-56
2021/10/22 06:45:28;;;;;;;14.68;7.20;;;;;;;14.11;62.60;97233.34;5030643;28;20037;-59
2021/10/22 06:47:54;;;;;;;10.02;6.70;;;;;;;14.16;62.27;97233.75;5032594;28;20037;-57
2021/10/22 06:50:20;;;;;;;11.75;6.50;;;;;;;14.24;62.33;97239.13;5038452;28;20390;-59
2021/10/22 06:52:46;;;;;;;8.73;5.95;;;;;;;14.34;61.41;97238.19;5047472;28;20063;-56
2021/10/22 06:55:12;;;;;;;6.40;4.45;;;;;;;14.30;60.97;97260.31;5035484;28;20037;-57
2021/10/22 06:57:41;;;;;;;9.18;4.38;;;;;;;14.09;61.03;97232.63;5027536;28;20041;-58
2021/10/22 07:00:11;;;;;;;8.45;3.97;;;;;;;14.13;60.96;97258.34;5047107;28;20045;-59
2021/10/22 07:02:50;;;;;;;8.50;4.97;;;;;;;14.03;60.69;97256.72;5031624;28;20045;-59
2021/10/22 07:05:33;;;;;;;5.68;3.72;;;;;;;14.00;60.26;97252.56;5030425;28;20042;-58
2021/10/22 07:08:04;;;;;;;5.15;3.05;;;;;;;14.09;59.62;97263.97;5027266;28;20077;-59
2021/10/22 07:10:32;;;;;;;7.85;3.70;;;;;;;14.50;58.40;97265.63;5010108;28;20172;-55
2021/10/22 07:12:58;;;;;;;17.75;4.00;;;;;;;14.87;56.93;97255.28;5011748;28;20088;-58
2021/10/22 07:15:26;;;;;;;5.25;3.17;;;;;;;15.11;55.93;97277.47;5011980;28;20081;-57
2021/10/22 07:17:52;;;;;;;5.75;2.42;;;;;;;15.70;53.50;97271.16;5026766;28;20095;-57
2021/10/22 07:20:19;;;;;;;5.75;2.50;;;;;;;16.06;52.44;97261.63;5026483;28;20134;-58
2021/10/22 07:22:52;;;;;;;4.53;2.35;;;;;;;17.50;48.74;97284.13;5011028;28;20568;-58
2021/10/22 07:25:19;;;;;;;3.13;1.73;;;;;;;18.05;45.16;97300.41;5027187;28;20081;-58
2021/10/22 07:27:46;;;;;;;1.88;1.08;;;;;;;18.36;44.02;97287.56;5029177;28;20048;-58
2021/10/22 07:30:12;;;;;;;3.65;1.20;;;;;;;18.50;42.82;97302.72;5013487;28;20167;-58
2021/10/22 07:32:39;;;;;;;2.38;1.30;;;;;;;18.35;43.05;97296.41;5010846;28;20038;-58
2021/10/22 07:35:06;;;;;;;2.40;1.27;;;;;;;19.11;41.79;97296.25;5010913;28;20045;-58
2021/10/22 07:37:32;;;;;;;2.42;1.30;;;;;;;19.18;41.16;97296.41;5012021;28;20057;-58
2021/10/22 07:39:58;;;;;;;1.95;1.10;;;;;;;18.81;41.69;97295.06;5011730;28;20049;-57
2021/10/22 07:42:25;;;;;;;1.90;1.20;;;;;;;18.07;43.15;97300.25;5009642;28;20141;-57
2021/10/22 07:44:56;;;;;;;4.07;1.35;;;;;;;17.52;44.41;97305.81;5010808;28;20046;-58
2021/10/22 07:47:22;;;;;;;2.05;1.10;;;;;;;16.84;45.29;97307.41;5029078;28;20111;-59
2021/10/22 07:49:49;;;;;;;1.60;0.77;;;;;;;16.35;45.84;97280.63;5029704;28;20114;-58
2021/10/22 07:52:20;;;;;;;5.20;1.05;;;;;;;16.51;45.61;97290.47;5029076;28;20235;-56
2021/10/22 07:54:46;;;;;;;5.75;0.90;;;;;;;17.15;43.36;97290.28;5029228;28;20438;-59
2021/10/22 07:57:12;;;;;;;1.67;1.10;;;;;;;17.91;42.40;97293.09;5029100;28;20045;-55
2021/10/22 07:59:38;;;;;;;1.58;0.80;;;;;;;19.01;39.70;97295.59;5010828;28;20121;-58
2021/10/22 08:02:11;;;;;;;4.07;0.88;;;;;;;19.23;39.21;97292.31;4993203;28;20034;-56
2021/10/22 08:04:37;;;;;;;1.40;0.95;;;;;;;19.83;37.91;97318.31;5025855;28;20046;-59
2021/10/22 08:07:02;;;;;;;1.65;0.80;;;;;;;19.57;37.83;97322.97;5009831;28;20053;-59
2021/10/22 08:09:28;;;;;;;6.00;0.80;;;;;;;19.40;37.71;97317.66;5029201;28;20049;-57
2021/10/22 08:11:55;;;;;;;0.73;0.55;;;;;;;19.32;37.58;97325.56;5012204;28;20140;-58
2021/10/22 08:14:21;;;;;;;1.35;0.50;;;;;;;19.29;37.63;97320.63;5029809;28;20400;-58
2021/10/22 08:16:47;;;;;;;2.45;0.60;;;;;;;19.21;37.55;97317.19;5029779;28;20136;-58
2021/10/22 08:19:14;;;;;;;2.63;1.00;;;;;;;19.74;36.79;97333.28;5030260;28;20038;-58
2021/10/22 08:24:08;;;;;;;2.33;1.10;;;;;;;21.37;34.04;97326.28;5025143;28;20057;-57
2021/10/22 08:26:33;;;;;;;1.10;0.57;;;;;;;21.16;34.16;97320.00;5041668;28;20046;-57
2021/10/22 08:29:00;;;;;;;2.35;0.80;;;;;;;20.10;35.74;97332.88;5021308;28;20095;-58
2021/10/22 08:31:26;;;;;;;2.63;0.50;;;;;;;18.84;37.33;97328.16;5029486;28;20048;-58
2021/10/22 08:33:52;;;;;;;5.00;0.70;;;;;;;17.66;39.58;97317.59;5029671;28;20136;-56
2021/10/22 08:36:18;;;;;;;2.47;0.50;;;;;;;17.22;40.62;97328.06;5011939;28;20041;-58
2021/10/22 08:38:43;;;;;;;0.82;0.50;;;;;;;16.61;41.72;97342.91;5021179;28;20099;-56
2021/10/22 08:41:15;;;;;;;1.00;0.60;;;;;;;16.29;42.60;97359.88;4992337;28;20046;-58
2021/10/22 08:43:41;;;;;;;1.55;0.68;;;;;;;15.89;44.09;97331.34;5009964;28;20104;-57
2021/10/22 08:46:12;;;;;;;2.45;0.63;;;;;;;15.69;44.06;97329.75;5009911;28;20132;-57
2021/10/22 08:48:38;;;;;;;1.17;0.80;;;;;;;15.45;44.13;97330.16;5017954;28;20068;-57
2021/10/22 08:51:04;;;;;;;0.45;0.45;;;;;;;15.22;44.94;97332.28;5044490;28;20469;-57
2021/10/22 08:53:30;;;;;;;1.80;0.70;;;;;;;15.31;44.51;97321.94;5027716;28;20033;-57
2021/10/22 08:55:58;;;;;;;1.63;0.73;;;;;;;15.20;44.87;97326.34;5028560;28;20528;-58
2021/10/22 08:58:25;;;;;;;3.13;0.90;;;;;;;15.24;44.88;97330.34;5024375;28;20038;-59
2021/10/22 09:00:51;;;;;;;1.58;0.65;;;;;;;15.21;44.90;97314.09;5034489;28;20099;-57
2021/10/22 09:03:18;;;;;;;2.65;0.80;;;;;;;15.14;45.01;97318.22;5023038;28;20075;-57
2021/10/22 09:06:08;;;;;;;4.82;0.90;;;;;;;14.95;45.36;97320.84;5008842;28;20191;-58
2021/10/22 09:08:37;;;;;;;3.22;0.80;;;;;;;14.89;45.94;97319.59;5021842;28;20532;-59
2021/10/22 09:11:38;;;;;;;3.85;0.90;;;;;;;14.71;46.08;97318.63;5021722;28;20045;-58
2021/10/22 09:14:17;;;;;;;5.57;1.13;;;;;;;14.63;46.25;97301.00;5015977;28;20099;-55
2021/10/22 09:16:49;;;;;;;3.88;0.63;;;;;;;14.68;46.13;97309.28;5026566;28;20037;-57
2021/10/22 09:19:50;;;;;;;1.75;0.60;;;;;;;14.53;45.99;97323.69;5017453;28;20137;-57
2021/10/22 09:22:32;;;;;;;2.20;0.70;;;;;;;14.76;45.96;97305.94;5025083;28;20476;-56
2021/10/22 09:25:01;;;;;;;0.82;0.60;;;;;;;15.23;44.95;97328.69;5008186;28;20042;-58
2021/10/22 09:27:35;;;;;;;4.90;0.88;;;;;;;15.45;44.79;97327.56;5030872;28;20104;-58
2021/10/22 09:30:04;;;;;;;2.67;1.35;;;;;;;15.26;44.75;97307.47;5022411;28;20472;-57
2021/10/22 09:32:31;;;;;;;1.13;0.80;;;;;;;15.19;44.38;97302.91;5025039;28;20053;-58
2021/10/22 09:34:56;;;;;;;4.15;0.80;;;;;;;15.37;43.98;97316.13;5024668;28;20053;-58
2021/10/22 09:37:23;;;;;;;2.13;0.65;;;;;;;15.43;42.51;97381.88;5028020;28;20495;-55
2021/10/22 09:39:49;;;;;;;2.75;0.60;;;;;;;15.05;42.95;97313.81;5012169;28;20121;-57
2021/10/22 09:42:18;;;;;;;3.88;0.80;;;;;;;15.08;42.99;97282.13;5023628;28;20524;-57
2021/10/22 09:44:47;;;;;;;2.27;0.80;;;;;;;15.28;42.67;97289.03;5012097;28;20752;-57
2021/10/22 09:47:20;;;;;;;1.98;0.90;;;;;;;15.38;42.54;97283.75;5007179;28;20444;-58
2021/10/22 09:49:52;;;;;;;8.20;0.80;;;;;;;15.26;42.19;97296.19;5008961;28;20045;-58
2021/10/22 09:52:26;;;;;;;1.73;0.82;;;;;;;15.23;42.57;97283.34;5022757;28;20069;-59
2021/10/22 09:55:09;;;;;;;1.55;0.80;;;;;;;15.02;43.04;97321.97;5035341;28;20041;-59
2021/10/22 09:57:43;;;;;;;2.00;0.70;;;;;;;14.73;43.86;97314.91;5025448;28;20060;-59
2021/10/22 10:00:12;;;;;;;2.72;0.60;;;;;;;14.51;43.87;97299.47;5025237;28;20095;-57
2021/10/22 10:02:41;;;;;;;0.70;0.60;;;;;;;14.34;44.05;97302.72;5007501;28;20402;-55
2021/10/22 10:05:11;;;;;;;4.10;0.90;;;;;;;14.24;44.08;97299.22;5025994;28;20068;-56
2021/10/22 10:07:38;;;;;;;4.72;0.77;;;;;;;14.30;44.65;97325.66;5032523;28;20046;-56
2021/10/22 10:10:09;;;;;;;1.88;0.70;;;;;;;14.26;44.88;97315.63;5047424;28;20044;-58
2021/10/22 10:12:35;;;;;;;0.85;0.60;;;;;;;14.23;44.52;97298.44;5012261;28;20417;-57
2021/10/22 10:15:03;;;;;;;3.60;0.73;;;;;;;14.26;44.35;97316.44;5012356;28;20416;-58
2021/10/22 10:17:29;;;;;;;2.30;0.70;;;;;;;14.11;43.99;97324.78;5013299;28;20041;-57
2021/10/22 10:19:55;;;;;;;1.08;0.63;;;;;;;14.10;44.47;97302.22;5027390;28;20141;-56
2021/10/22 10:22:26;;;;;;;2.08;0.70;;;;;;;14.08;44.44;97315.41;5043719;28;20042;-56
2021/10/22 10:24:58;;;;;;;2.08;0.80;;;;;;;14.08;44.40;97310.19;5035118;28;20038;-59
2021/10/22 10:27:25;;;;;;;5.50;0.45;;;;;;;13.97;44.62;97332.00;5027593;28;20483;-57
2021/10/22 10:30:00;;;;;;;1.35;0.50;;;;;;;13.88;45.63;97376.38;5012007;28;20045;-57
2021/10/22 10:32:29;;;;;;;2.72;0.50;;;;;;;13.12;50.32;97401.00;5010712;28;20040;-57
2021/10/22 10:34:57;;;;;;;3.13;0.40;;;;;;;12.48;54.99;97421.72;5027261;28;20052;-56
2021/10/22 10:37:24;;;;;;;0.90;0.38;;;;;;;11.97;57.33;97444.78;5011857;28;20045;-57
2021/10/22 10:39:56;;;;;;;1.00;0.28;;;;;;;11.65;58.13;97444.56;5028504;28;20041;-59
2021/10/22 10:42:40;;;;;;;1.33;0.30;;;;;;;11.42;59.47;97456.66;5031811;28;20041;-56
2021/10/22 10:45:19;;;;;;;1.98;0.40;;;;;;;11.13;60.74;97462.31;5031103;28;20466;-57
2021/10/22 10:47:52;;;;;;;;;;;;;;;10.94;61.87;97478.38;5031167;28;20144;-56
2021/10/22 10:50:26;;;;;;;2.47;0.40;;;;;;;10.65;63.61;97496.03;5063595;28;19917;-57
2021/10/22 10:52:57;;;;;;;0.40;0.40;;;;;;;10.39;63.50;97495.25;5030266;28;20491;-59
2021/10/22 10:55:30;;;;;;;0.75;0.40;;;;;;;10.33;63.82;97511.25;5028636;28;20088;-57
2021/10/22 10:58:17;;;;;;;0.82;0.30;;;;;;;10.23;65.22;97532.75;5030961;28;20064;-57
2021/10/22 11:00:45;;;;;;;0.88;0.25;;;;;;;9.95;68.25;97541.50;5031599;28;20049;-54
2021/10/22 11:03:16;;;;;;;0.90;0.35;;;;;;;9.65;71.35;97545.16;5046657;28;20513;-56
2021/10/22 11:05:42;;;;;;;0.82;0.40;;;;;;;9.23;74.50;97547.91;5035474;28;20136;-56
2021/10/22 11:08:30;;;;;;;1.73;0.50;;;;;;;8.82;78.98;97551.31;5011683;28;20132;-55
2021/10/22 11:14:02;;;;;;;0.70;0.30;;;;;;;8.23;88.10;97510.88;5011432;28;20041;-58
2021/10/22 11:19:04;;;;;;;2.65;0.40;;;;;;;8.19;93.79;97518.91;5021158;28;20084;-56
2021/10/22 11:21:31;;;;;;;0.50;0.28;;;;;;;8.14;94.75;97508.81;5011457;28;20076;-59
2021/10/22 11:24:00;;;;;;;1.45;0.68;;;;;;;8.02;95.21;97505.19;5011277;28;20227;-57
2021/10/22 11:26:26;;;;;;;2.50;0.80;;;;;;;7.96;95.36;97535.78;5026736;28;20045;-55
2021/10/22 11:28:54;;;;;;;1.67;0.50;;;;;;;8.07;95.71;97549.75;5030909;28;20045;-56
2021/10/22 11:31:54;;;;;;;2.67;0.60;;;;;;;8.20;93.27;97546.47;5030856;28;20038;-56
2021/10/22 11:34:25;;;;;;;0.77;0.43;;;;;;;8.31;92.57;97552.72;5008368;28;20134;-58
2021/10/22 11:37:14;;;;;;;2.00;1.13;;;;;;;8.70;91.18;97562.41;5028669;28;20065;-57
2021/10/22 11:39:41;;;;;;;2.33;1.10;;;;;;;9.45;86.98;97557.75;5015133;28;20052;-55
2021/10/22 11:42:32;;;;;;;2.35;0.73;;;;;;;9.75;81.53;97558.38;5014065;28;20042;-57
2021/10/22 11:45:09;;;;;;;2.80;0.98;;;;;;;9.59;79.88;97581.88;5030617;28;20471;-56
2021/10/22 11:47:46;;;;;;;0.88;0.50;;;;;;;9.65;78.53;97557.31;5015383;28;20042;-58
2021/10/22 11:50:15;;;;;;;2.50;0.73;;;;;;;10.35;75.42;97561.31;5011720;28;20041;-56
2021/10/22 11:52:41;;;;;;;0.97;0.47;;;;;;;10.88;71.65;97573.25;5025894;28;20057;-56